createdAt,value
2017-06-28T00:01:22.573Z,25.30
2017-06-28T00:03:51.003Z,25.40
2017-06-28T00:06:19.638Z,25.30
2017-06-28T00:08:48.123Z,25.30
2017-06-28T00:11:16.684Z,25.40
2017-06-28T00:13:45.120Z,25.30
2017-06-28T00:16:13.593Z,25.30
2017-06-28T00:18:42.504Z,25.30
2017-06-28T00:21:10.943Z,25.30
2017-06-28T00:23:39.363Z,25.30
2017-06-28T00:26:08.041Z,25.30
2017-06-28T00:28:36.555Z,25.30
2017-06-28T00:31:04.985Z,25.30
2017-06-28T00:33:33.446Z,25.30
2017-06-28T00:36:01.910Z,25.30
2017-06-28T00:38:30.256Z,25.30
2017-06-28T00:40:58.680Z,25.30
2017-06-28T00:43:27.323Z,25.30
2017-06-28T00:45:55.748Z,25.30
2017-06-28T00:48:24.237Z,25.30
2017-06-28T00:50:52.769Z,25.30
2017-06-28T00:53:21.396Z,25.30
2017-06-28T00:55:49.851Z,25.30
2017-06-28T00:58:18.273Z,25.30
2017-06-28T01:00:46.712Z,25.30
2017-06-28T01:03:15.188Z,25.30
2017-06-28T01:05:44.386Z,25.30
2017-06-28T01:08:12.814Z,25.30
2017-06-28T01:10:41.274Z,25.30
2017-06-28T01:13:09.706Z,25.30
2017-06-28T01:15:39.242Z,25.30
2017-06-28T01:18:07.671Z,25.30
2017-06-28T01:20:36.404Z,25.30
2017-06-28T01:23:04.863Z,25.30
2017-06-28T01:25:33.278Z,25.20
2017-06-28T01:28:01.555Z,25.30
2017-06-28T01:30:30.024Z,25.30
2017-06-28T01:32:58.568Z,25.20
2017-06-28T01:35:27.088Z,25.20
2017-06-28T01:37:55.646Z,25.30
2017-06-28T01:40:24.072Z,25.20
2017-06-28T01:42:52.489Z,25.30
2017-06-28T01:45:21.086Z,25.30
2017-06-28T01:47:49.545Z,25.30
2017-06-28T01:50:17.305Z,25.20
2017-06-28T01:52:45.608Z,25.30
2017-06-28T01:55:14.293Z,25.20
2017-06-28T01:57:42.981Z,25.30
2017-06-28T02:00:11.394Z,25.20
2017-06-28T02:02:39.814Z,25.20
2017-06-28T02:05:08.302Z,25.20
2017-06-28T02:07:36.729Z,25.20
2017-06-28T02:10:05.180Z,25.20
2017-06-28T02:12:33.842Z,25.20
2017-06-28T02:15:02.262Z,25.20
2017-06-28T02:17:30.729Z,25.20
2017-06-28T02:19:59.274Z,25.20
2017-06-28T02:22:27.700Z,25.20
2017-06-28T02:24:56.184Z,25.20
2017-06-28T02:27:24.599Z,25.20
2017-06-28T02:29:53.131Z,25.20
2017-06-28T02:32:21.669Z,25.20
2017-06-28T02:34:50.091Z,25.20
2017-06-28T02:37:19.460Z,25.20
2017-06-28T02:39:47.991Z,25.20
2017-06-28T02:42:16.424Z,25.20
2017-06-28T02:44:44.946Z,25.20
2017-06-28T02:47:13.371Z,25.20
2017-06-28T02:49:41.925Z,25.20
2017-06-28T02:52:10.384Z,25.20
2017-06-28T02:54:39.067Z,25.20
2017-06-28T02:57:07.492Z,25.20
2017-06-28T02:59:35.909Z,25.20
2017-06-28T03:02:04.364Z,25.20
2017-06-28T03:04:32.786Z,25.20
2017-06-28T03:07:24.306Z,25.20
2017-06-28T03:09:52.734Z,25.20
2017-06-28T03:12:21.160Z,25.20
2017-06-28T03:14:49.933Z,25.20
2017-06-28T03:17:18.357Z,25.20
2017-06-28T03:19:46.816Z,25.20
2017-06-28T03:22:15.272Z,25.20
2017-06-28T03:24:43.762Z,25.20
2017-06-28T03:27:12.260Z,25.20
2017-06-28T03:29:40.678Z,25.20
2017-06-28T03:32:09.324Z,25.20
2017-06-28T03:34:37.751Z,25.20
2017-06-28T03:37:06.170Z,25.20
2017-06-28T03:39:34.633Z,25.20
2017-06-28T03:42:03.055Z,25.20
2017-06-28T03:44:32.444Z,25.10
2017-06-28T03:47:00.872Z,25.20
2017-06-28T03:49:29.507Z,25.20
2017-06-28T03:51:58.051Z,25.10
2017-06-28T03:54:26.479Z,25.10
2017-06-28T03:56:54.959Z,25.20
2017-06-28T03:59:23.376Z,25.10
2017-06-28T04:01:51.870Z,25.10
2017-06-28T04:04:20.422Z,25.10
2017-06-28T04:06:48.938Z,25.10
2017-06-28T04:09:17.353Z,25.10
2017-06-28T04:11:45.804Z,25.10
2017-06-28T04:14:14.276Z,25.10
2017-06-28T04:16:42.705Z,25.20
2017-06-28T04:19:11.391Z,25.10
2017-06-28T04:21:40.062Z,25.10
2017-06-28T04:24:08.550Z,25.10
2017-06-28T04:26:36.989Z,25.10
2017-06-28T04:29:05.573Z,25.10
2017-06-28T04:31:34.031Z,25.10
2017-06-28T04:34:02.452Z,25.10
2017-06-28T04:36:31.018Z,25.10
2017-06-28T04:38:59.509Z,25.10
2017-06-28T04:41:27.931Z,25.10
2017-06-28T04:43:56.368Z,25.10
2017-06-28T04:46:25.148Z,25.10
2017-06-28T04:48:53.575Z,25.10
2017-06-28T04:51:22.207Z,25.10
2017-06-28T04:53:50.627Z,25.10
2017-06-28T04:56:19.056Z,25.10
2017-06-28T04:58:47.653Z,25.10
2017-06-28T05:01:16.086Z,25.10
2017-06-28T05:03:44.721Z,25.10
2017-06-28T05:06:14.030Z,25.10
2017-06-28T05:08:42.507Z,25.10
2017-06-28T05:11:10.939Z,25.10
2017-06-28T05:13:39.356Z,25.10
2017-06-28T05:16:07.816Z,25.10
2017-06-28T05:18:36.488Z,25.10
2017-06-28T05:21:05.721Z,25.10
2017-06-28T05:23:34.203Z,25.10
2017-06-28T05:26:02.634Z,25.10
2017-06-28T05:28:31.266Z,25.10
2017-06-28T05:30:59.953Z,25.10
2017-06-28T05:33:28.463Z,25.10
2017-06-28T05:35:56.888Z,25.10
2017-06-28T05:38:25.394Z,25.10
2017-06-28T05:40:53.825Z,25.10
2017-06-28T05:43:22.234Z,25.10
2017-06-28T05:45:50.699Z,25.10
2017-06-28T05:48:19.113Z,25.10
2017-06-28T05:50:47.597Z,25.10
2017-06-28T05:53:16.094Z,25.10
2017-06-28T05:55:44.524Z,25.10
2017-06-28T05:58:12.958Z,25.10
2017-06-28T06:00:41.578Z,25.10
2017-06-28T06:03:09.998Z,25.10
2017-06-28T06:05:38.486Z,25.10
2017-06-28T06:08:07.167Z,25.10
2017-06-28T06:10:35.593Z,25.10
2017-06-28T06:13:04.020Z,25.10
2017-06-28T06:15:32.712Z,25.10
2017-06-28T06:18:01.683Z,25.10
2017-06-28T06:20:30.111Z,25.10
2017-06-28T06:22:58.769Z,25.10
2017-06-28T06:25:27.199Z,25.10
2017-06-28T06:27:55.834Z,25.10
2017-06-28T06:30:24.268Z,25.10
2017-06-28T06:32:52.905Z,25.10
2017-06-28T06:35:21.438Z,25.10
2017-06-28T06:37:49.870Z,25.10
2017-06-28T06:40:18.339Z,25.10
2017-06-28T06:42:46.751Z,25.10
2017-06-28T06:45:15.184Z,25.10
2017-06-28T06:47:43.757Z,25.10
2017-06-28T06:50:13.277Z,25.10
2017-06-28T06:52:41.708Z,25.10
2017-06-28T06:55:10.148Z,25.10
2017-06-28T06:57:38.741Z,25.00
2017-06-28T07:00:07.214Z,25.00
2017-06-28T07:02:36.207Z,25.00
2017-06-28T07:05:04.705Z,24.90
2017-06-28T07:07:33.133Z,24.90
2017-06-28T07:10:01.547Z,24.90
2017-06-28T07:12:30.339Z,24.90
2017-06-28T07:14:58.765Z,25.00
2017-06-28T07:17:27.219Z,24.90
2017-06-28T07:19:56.376Z,24.90
2017-06-28T07:22:24.838Z,24.90
2017-06-28T07:24:53.317Z,24.90
2017-06-28T07:27:21.741Z,24.90
2017-06-28T07:29:50.206Z,24.90
2017-06-28T07:32:18.678Z,25.00
2017-06-28T07:34:47.154Z,25.00
2017-06-28T07:37:15.706Z,25.00
2017-06-28T07:39:44.198Z,25.00
2017-06-28T07:42:12.659Z,25.10
2017-06-28T07:44:41.361Z,25.20
2017-06-28T07:47:09.865Z,25.20
2017-06-28T07:49:39.056Z,25.30
2017-06-28T07:52:07.623Z,25.30
2017-06-28T07:54:36.314Z,25.40
2017-06-28T07:57:04.751Z,25.50
2017-06-28T07:59:33.381Z,25.50
2017-06-28T08:02:01.808Z,25.50
2017-06-28T08:04:30.245Z,25.40
2017-06-28T08:06:58.719Z,25.50
2017-06-28T08:09:27.924Z,25.50
2017-06-28T08:11:56.499Z,25.40
2017-06-28T08:14:24.930Z,25.40
2017-06-28T08:16:53.461Z,25.50
2017-06-28T08:19:22.145Z,25.40
2017-06-28T08:21:50.707Z,25.40
2017-06-28T08:24:19.127Z,25.40
2017-06-28T08:26:47.791Z,25.40
2017-06-28T08:29:16.222Z,25.40
2017-06-28T08:31:44.664Z,25.40
2017-06-28T08:34:13.342Z,25.40
2017-06-28T08:36:41.766Z,25.40
2017-06-28T08:39:10.403Z,25.40
2017-06-28T08:41:38.832Z,25.30
2017-06-28T08:44:07.474Z,25.30
2017-06-28T08:46:35.900Z,25.30
2017-06-28T08:49:04.531Z,25.30
2017-06-28T08:51:32.959Z,25.30
2017-06-28T08:54:01.402Z,25.30
2017-06-28T08:56:29.698Z,25.30
2017-06-28T08:58:58.175Z,25.30
2017-06-28T09:01:26.604Z,25.30
2017-06-28T09:03:55.037Z,25.30
2017-06-28T09:06:23.520Z,25.30
2017-06-28T09:08:51.938Z,25.20
2017-06-28T09:11:20.554Z,25.30
2017-06-28T09:13:49.240Z,25.30
2017-06-28T09:16:17.667Z,25.30
2017-06-28T09:18:46.302Z,25.30
2017-06-28T09:21:14.730Z,25.30
2017-06-28T09:23:43.164Z,25.30
2017-06-28T09:26:11.643Z,25.20
2017-06-28T09:28:40.891Z,25.30
2017-06-28T09:31:09.344Z,25.20
2017-06-28T09:33:37.790Z,25.20
2017-06-28T09:36:06.491Z,25.20
2017-06-28T09:38:35.487Z,25.30
2017-06-28T09:41:03.911Z,25.30
2017-06-28T09:43:32.342Z,25.20
2017-06-28T09:46:00.849Z,25.30
2017-06-28T09:48:29.319Z,25.30
2017-06-28T09:50:57.729Z,25.20
2017-06-28T09:53:26.217Z,25.20
2017-06-28T09:55:54.653Z,25.20
2017-06-28T09:58:23.843Z,25.30
2017-06-28T10:00:52.736Z,25.20
2017-06-28T10:03:21.251Z,25.30
2017-06-28T10:05:49.671Z,25.30
2017-06-28T10:08:18.163Z,25.30
2017-06-28T10:10:46.869Z,25.30
2017-06-28T10:13:15.289Z,25.30
2017-06-28T10:15:43.787Z,25.30
2017-06-28T10:18:12.224Z,25.30
2017-06-28T10:20:40.653Z,25.30
2017-06-28T10:23:09.114Z,25.30
2017-06-28T10:25:37.549Z,25.20
2017-06-28T10:28:06.129Z,25.20
2017-06-28T10:30:34.871Z,25.20
2017-06-28T10:33:03.497Z,25.20
2017-06-28T10:35:31.931Z,25.30
2017-06-28T10:38:00.408Z,25.20
2017-06-28T10:40:28.850Z,25.20
2017-06-28T10:42:58.060Z,25.20
2017-06-28T10:45:26.521Z,25.20
2017-06-28T10:47:55.921Z,25.20
2017-06-28T10:50:24.607Z,25.20
2017-06-28T10:52:53.176Z,25.20
2017-06-28T10:55:21.634Z,25.20
2017-06-28T10:57:50.103Z,25.20
2017-06-28T11:00:18.542Z,25.20
2017-06-28T11:02:47.012Z,25.30
2017-06-28T11:05:15.491Z,25.30
2017-06-28T11:07:44.080Z,25.20
2017-06-28T11:10:13.404Z,25.30
2017-06-28T11:12:41.860Z,25.20
2017-06-28T11:15:10.412Z,25.20
2017-06-28T11:17:38.889Z,25.30
2017-06-28T11:20:07.341Z,25.30
2017-06-28T11:22:35.771Z,25.30
2017-06-28T11:25:04.248Z,25.30
2017-06-28T11:27:32.723Z,25.30
2017-06-28T11:30:01.154Z,25.30
2017-06-28T11:32:29.811Z,25.30
2017-06-28T11:34:58.366Z,25.30
2017-06-28T11:37:26.871Z,25.30
2017-06-28T11:39:55.558Z,25.30
2017-06-28T11:42:24.243Z,25.30
2017-06-28T11:44:52.822Z,25.30
2017-06-28T11:47:21.322Z,25.30
2017-06-28T11:49:49.993Z,25.30
2017-06-28T11:52:18.427Z,25.30
2017-06-28T11:54:46.879Z,25.30
2017-06-28T11:57:15.308Z,25.30
2017-06-28T11:59:43.766Z,25.40
2017-06-28T12:02:12.252Z,25.30
2017-06-28T12:04:40.878Z,25.30
2017-06-28T12:07:09.308Z,25.40
2017-06-28T12:10:00.534Z,25.50
2017-06-28T12:12:29.158Z,25.50
2017-06-28T12:14:58.458Z,25.60
2017-06-28T12:17:26.960Z,25.60
2017-06-28T12:19:55.432Z,25.60
2017-06-28T12:22:24.632Z,25.70
2017-06-28T12:24:53.206Z,25.70
2017-06-28T12:27:21.715Z,25.80
2017-06-28T12:29:50.282Z,25.80
2017-06-28T12:32:18.717Z,25.90
2017-06-28T12:34:47.245Z,26.00
2017-06-28T12:37:15.930Z,26.00
2017-06-28T12:39:44.604Z,26.00
2017-06-28T12:42:13.304Z,26.00
2017-06-28T12:44:41.839Z,26.10
2017-06-28T12:47:10.307Z,26.10
2017-06-28T12:49:38.905Z,26.00
2017-06-28T12:52:08.165Z,26.10
2017-06-28T12:54:37.447Z,26.20
2017-06-28T12:57:05.940Z,26.20
2017-06-28T12:59:34.381Z,26.20
2017-06-28T13:02:02.854Z,26.30
2017-06-28T13:04:31.549Z,26.30
2017-06-28T13:06:59.979Z,26.30
2017-06-28T13:09:28.451Z,26.30
2017-06-28T13:11:56.926Z,26.40
2017-06-28T13:14:25.367Z,26.40
2017-06-28T13:16:54.103Z,26.40
2017-06-28T13:19:22.529Z,26.50
2017-06-28T13:21:50.975Z,26.40
2017-06-28T13:24:19.547Z,26.40
2017-06-28T13:26:47.984Z,26.30
2017-06-28T13:29:16.489Z,26.40
2017-06-28T13:31:45.094Z,26.40
2017-06-28T13:34:13.524Z,26.40
2017-06-28T13:36:42.154Z,26.40
2017-06-28T13:39:10.582Z,26.30
2017-06-28T13:41:39.126Z,26.30
2017-06-28T13:44:08.536Z,26.40
2017-06-28T13:46:37.631Z,26.40
2017-06-28T13:49:06.067Z,26.40
2017-06-28T13:51:34.576Z,26.40
2017-06-28T13:54:03.021Z,26.40
2017-06-28T13:56:31.644Z,26.40
2017-06-28T13:59:00.958Z,26.50
2017-06-28T14:01:30.166Z,26.50
2017-06-28T14:03:58.686Z,26.50
2017-06-28T14:06:27.215Z,26.50
2017-06-28T14:08:55.857Z,26.40
2017-06-28T14:11:24.831Z,26.40
2017-06-28T14:13:53.285Z,26.40
2017-06-28T14:16:21.738Z,26.30
2017-06-28T14:18:50.228Z,26.30
2017-06-28T14:21:18.652Z,26.30
2017-06-28T14:23:47.075Z,26.30
2017-06-28T14:26:15.564Z,26.30
2017-06-28T14:28:43.991Z,26.30
2017-06-28T14:31:12.548Z,26.30
2017-06-28T14:33:40.980Z,26.30
2017-06-28T14:36:09.414Z,26.30
2017-06-28T14:38:38.301Z,26.30
2017-06-28T14:41:06.747Z,26.40
2017-06-28T14:43:35.180Z,26.40
2017-06-28T14:46:03.650Z,26.40
2017-06-28T14:48:32.854Z,26.40
2017-06-28T14:51:01.276Z,26.40
2017-06-28T14:53:29.750Z,26.40
2017-06-28T14:55:58.171Z,26.30
2017-06-28T14:58:26.607Z,26.30
2017-06-28T15:00:55.201Z,26.30
2017-06-28T15:03:23.695Z,26.30
2017-06-28T15:05:52.891Z,26.50
2017-06-28T15:08:21.460Z,26.50
2017-06-28T15:10:49.931Z,26.50
2017-06-28T15:13:18.365Z,26.60
2017-06-28T15:15:46.937Z,26.70
2017-06-28T15:18:15.415Z,26.80
2017-06-28T15:20:43.841Z,26.80
2017-06-28T15:23:12.394Z,26.90
2017-06-28T15:25:42.011Z,27.00
2017-06-28T15:28:10.445Z,27.00
2017-06-28T15:30:38.884Z,27.00
2017-06-28T15:33:07.457Z,26.90
2017-06-28T15:35:36.139Z,27.00
2017-06-28T15:38:04.827Z,27.00
2017-06-28T15:40:33.384Z,27.10
2017-06-28T15:43:01.824Z,27.30
2017-06-28T15:45:30.289Z,27.10
2017-06-28T15:47:58.775Z,27.20
2017-06-28T15:50:27.871Z,27.30
2017-06-28T15:52:56.495Z,27.10
2017-06-28T15:55:24.632Z,27.30
2017-06-28T15:57:53.090Z,27.10
2017-06-28T16:00:21.525Z,27.10
2017-06-28T16:02:50.005Z,27.00
2017-06-28T16:05:18.553Z,26.80
2017-06-28T16:07:47.030Z,26.70
2017-06-28T16:10:15.463Z,26.70
2017-06-28T16:12:43.887Z,26.60
2017-06-28T16:15:12.377Z,26.60
2017-06-28T16:17:41.041Z,26.50
2017-06-28T16:20:09.483Z,26.50
2017-06-28T16:22:37.976Z,26.50
2017-06-28T16:25:06.678Z,26.40
2017-06-28T16:27:35.115Z,26.40
2017-06-28T16:30:03.625Z,26.40
2017-06-28T16:32:32.160Z,26.40
2017-06-28T16:35:00.587Z,26.40
2017-06-28T16:37:29.396Z,26.30
2017-06-28T16:39:58.079Z,26.30
2017-06-28T16:42:26.736Z,26.20
2017-06-28T16:44:55.454Z,26.20
2017-06-28T16:47:23.885Z,26.20
2017-06-28T16:49:52.374Z,26.20
2017-06-28T16:52:20.807Z,26.20
2017-06-28T16:54:49.236Z,26.20
2017-06-28T16:57:18.573Z,26.10
2017-06-28T16:59:47.062Z,26.10
2017-06-28T17:02:15.498Z,26.10
2017-06-28T17:04:43.933Z,26.10
2017-06-28T17:07:12.417Z,26.10
2017-06-28T17:09:40.869Z,26.10
2017-06-28T17:12:10.094Z,26.10
2017-06-28T17:14:38.730Z,26.00
2017-06-28T17:17:07.921Z,26.00
2017-06-28T17:19:36.404Z,26.00
2017-06-28T17:22:05.627Z,26.00
2017-06-28T17:24:35.036Z,25.90
2017-06-28T17:27:03.725Z,26.00
2017-06-28T17:29:32.155Z,26.00
2017-06-28T17:32:00.789Z,25.90
2017-06-28T17:34:29.473Z,25.90
2017-06-28T17:36:57.948Z,25.90
2017-06-28T17:39:26.420Z,25.90
2017-06-28T17:41:54.901Z,25.90
2017-06-28T17:44:23.950Z,25.90
2017-06-28T17:46:52.378Z,25.90
2017-06-28T17:49:21.078Z,25.90
2017-06-28T17:51:49.506Z,25.80
2017-06-28T17:54:18.145Z,25.80
2017-06-28T17:56:46.693Z,25.90
2017-06-28T17:59:15.208Z,25.90
2017-06-28T18:01:43.684Z,25.80
2017-06-28T18:04:12.093Z,25.80
2017-06-28T18:06:40.652Z,25.80
2017-06-28T18:09:09.145Z,25.80
2017-06-28T18:11:37.714Z,25.70
2017-06-28T18:14:06.401Z,25.70
2017-06-28T18:16:34.839Z,25.80
2017-06-28T18:19:03.278Z,25.70
2017-06-28T18:21:31.845Z,25.70
2017-06-28T18:24:00.438Z,25.70
2017-06-28T18:26:28.864Z,25.70
2017-06-28T18:28:57.494Z,25.70
2017-06-28T18:31:26.176Z,25.70
2017-06-28T18:33:54.631Z,25.70
2017-06-28T18:36:23.137Z,25.70
2017-06-28T18:38:51.568Z,25.60
2017-06-28T18:41:20.103Z,25.60
2017-06-28T18:43:48.578Z,25.60
2017-06-28T18:46:17.008Z,25.60
2017-06-28T18:48:45.867Z,25.60
2017-06-28T18:51:14.320Z,25.60
2017-06-28T18:53:42.862Z,25.40
2017-06-28T18:56:11.372Z,25.40
2017-06-28T18:58:39.946Z,25.40
2017-06-28T19:01:08.377Z,25.40
2017-06-28T19:03:37.009Z,25.40
2017-06-28T19:06:05.503Z,25.30
2017-06-28T19:08:34.040Z,25.30
2017-06-28T19:11:02.564Z,25.30
2017-06-28T19:13:31.084Z,25.20
2017-06-28T19:15:59.559Z,25.20
2017-06-28T19:18:28.041Z,25.20
2017-06-28T19:20:56.468Z,25.20
2017-06-28T19:23:25.343Z,25.10
2017-06-28T19:25:53.763Z,25.10
2017-06-28T19:28:22.407Z,25.10
2017-06-28T19:30:50.894Z,25.10
2017-06-28T19:33:19.432Z,25.10
2017-06-28T19:35:47.886Z,25.10
2017-06-28T19:38:16.312Z,25.00
2017-06-28T19:40:45.232Z,25.00
2017-06-28T19:43:13.916Z,25.00
2017-06-28T19:45:42.377Z,25.10
2017-06-28T19:48:10.871Z,25.10
2017-06-28T19:50:39.546Z,25.00
2017-06-28T19:53:08.231Z,25.00
2017-06-28T19:55:36.672Z,25.00
2017-06-28T19:58:05.150Z,25.00
2017-06-28T20:00:33.625Z,25.00
2017-06-28T20:03:02.056Z,25.00
2017-06-28T20:05:30.608Z,25.00
2017-06-28T20:07:58.919Z,25.00
2017-06-28T20:10:27.355Z,25.00
2017-06-28T20:12:56.692Z,24.90
2017-06-28T20:15:25.202Z,24.80
2017-06-28T20:17:53.871Z,24.90
2017-06-28T20:20:22.354Z,24.80
2017-06-28T20:22:50.784Z,24.80
2017-06-28T20:25:19.302Z,24.80
2017-06-28T20:27:47.988Z,24.80
2017-06-28T20:30:17.512Z,24.80
2017-06-28T20:32:45.947Z,24.80
2017-06-28T20:35:14.385Z,24.80
2017-06-28T20:37:42.879Z,24.70
2017-06-28T20:40:11.439Z,24.70
2017-06-28T20:42:39.873Z,24.70
2017-06-28T20:45:08.340Z,24.70
2017-06-28T20:47:37.680Z,24.70
2017-06-28T20:50:06.365Z,24.70
2017-06-28T20:52:34.794Z,24.70
2017-06-28T20:55:03.221Z,24.70
2017-06-28T20:57:31.697Z,24.60
2017-06-28T21:00:00.318Z,24.70
2017-06-28T21:02:28.797Z,24.60
2017-06-28T21:04:57.310Z,24.60
2017-06-28T21:07:25.736Z,24.60
2017-06-28T21:09:54.499Z,24.60
2017-06-28T21:12:23.006Z,24.60
2017-06-28T21:14:51.698Z,24.60
2017-06-28T21:17:20.142Z,24.60
2017-06-28T21:19:48.744Z,24.60
2017-06-28T21:22:17.356Z,24.60
2017-06-28T21:24:45.974Z,24.50
2017-06-28T21:27:14.461Z,24.50
2017-06-28T21:29:42.884Z,24.50
2017-06-28T21:32:11.437Z,24.50
2017-06-28T21:34:40.001Z,24.50
2017-06-28T21:37:08.556Z,24.50
2017-06-28T21:39:37.054Z,24.40
2017-06-28T21:42:05.621Z,24.40
2017-06-28T21:44:34.074Z,24.40
2017-06-28T21:47:02.682Z,24.40
2017-06-28T21:49:31.247Z,24.30
2017-06-28T21:51:59.750Z,24.40
2017-06-28T21:54:29.819Z,24.40
2017-06-28T21:56:58.301Z,24.40
2017-06-28T21:59:26.733Z,24.40
2017-06-28T22:01:55.231Z,24.30
2017-06-28T22:04:23.658Z,24.40
2017-06-28T22:06:52.099Z,24.30
2017-06-28T22:09:20.565Z,24.40
2017-06-28T22:11:49.251Z,24.30
2017-06-28T22:14:17.693Z,24.40
2017-06-28T22:16:46.882Z,24.40
2017-06-28T22:19:41.521Z,24.30
2017-06-28T22:22:09.965Z,24.30
2017-06-28T22:24:39.155Z,24.30
2017-06-28T22:27:07.678Z,24.30
2017-06-28T22:29:36.109Z,24.30
2017-06-28T22:32:04.570Z,24.30
2017-06-28T22:34:33.015Z,24.30
2017-06-28T22:37:01.636Z,24.30
2017-06-28T22:39:30.773Z,24.30
2017-06-28T22:41:59.220Z,24.30
2017-06-28T22:44:27.637Z,24.30
2017-06-28T22:46:56.245Z,24.30
2017-06-28T22:49:24.675Z,24.30
2017-06-28T22:51:53.098Z,24.30
2017-06-28T22:54:21.586Z,24.30
2017-06-28T22:56:50.024Z,24.30
2017-06-28T22:59:18.673Z,24.30
2017-06-28T23:01:47.105Z,24.30
2017-06-28T23:04:15.592Z,24.30
2017-06-28T23:06:44.390Z,24.20
2017-06-28T23:09:13.091Z,24.20
2017-06-28T23:11:41.521Z,24.20
2017-06-28T23:14:09.961Z,24.30
2017-06-28T23:16:38.444Z,24.30
2017-06-28T23:19:06.864Z,24.30
2017-06-28T23:21:35.490Z,24.30
2017-06-28T23:24:04.019Z,24.30
2017-06-28T23:26:32.452Z,24.30
2017-06-28T23:29:00.942Z,24.30
2017-06-28T23:31:29.516Z,24.20
2017-06-28T23:33:57.953Z,24.20
2017-06-28T23:36:26.431Z,24.30
2017-06-28T23:38:55.074Z,24.30
2017-06-28T23:41:23.507Z,24.20
2017-06-28T23:43:51.963Z,24.30
2017-06-28T23:46:20.677Z,24.30
2017-06-28T23:48:49.098Z,24.20
2017-06-28T23:51:17.536Z,24.20
2017-06-28T23:53:46.015Z,24.20
2017-06-28T23:56:14.450Z,24.30
2017-06-28T23:58:42.867Z,24.20
